sensor_id;sensor_type;location;lat;lon;timestamp;pressure;altitude;pressure_sealevel;temperature
15680;BMP180;15488;48.114;11.532;2022-12-20T00:01:19;95950.00;;;10.90
15680;BMP180;15488;48.114;11.532;2022-12-20T00:03:51;95942.00;;;10.80
15680;BMP180;15488;48.114;11.532;2022-12-20T00:06:19;95958.00;;;10.90
15680;BMP180;15488;48.114;11.532;2022-12-20T00:08:51;95956.00;;;10.90
15680;BMP180;15488;48.114;11.532;2022-12-20T00:11:19;95951.00;;;10.90
15680;BMP180;15488;48.114;11.532;2022-12-20T00:13:46;95958.00;;;10.90
15680;BMP180;15488;48.114;11.532;2022-12-20T00:16:15;95964.00;;;11.00
15680;BMP180;15488;48.114;11.532;2022-12-20T00:18:44;95960.00;;;11.00
15680;BMP180;15488;48.114;11.532;2022-12-20T00:21:13;95964.00;;;11.00
15680;BMP180;15488;48.114;11.532;2022-12-20T00:23:41;95960.00;;;11.00
15680;BMP180;15488;48.114;11.532;2022-12-20T00:26:10;95958.00;;;11.00
15680;BMP180;15488;48.114;11.532;2022-12-20T00:28:39;95949.00;;;11.00
15680;BMP180;15488;48.114;11.532;2022-12-20T00:31:08;95945.00;;;11.00
15680;BMP180;15488;48.114;11.532;2022-12-20T00:33:37;95937.00;;;11.00
15680;BMP180;15488;48.114;11.532;2022-12-20T00:36:05;95934.00;;;11.00
15680;BMP180;15488;48.114;11.532;2022-12-20T00:38:35;95933.00;;;11.00
15680;BMP180;15488;48.114;11.532;2022-12-20T00:41:04;95938.00;;;11.00
15680;BMP180;15488;48.114;11.532;2022-12-20T00:43:31;95932.00;;;11.00
15680;BMP180;15488;48.114;11.532;2022-12-20T00:46:00;95934.00;;;11.00
15680;BMP180;15488;48.114;11.532;2022-12-20T00:48:28;95934.00;;;11.00
15680;BMP180;15488;48.114;11.532;2022-12-20T00:50:58;95936.00;;;11.00
15680;BMP180;15488;48.114;11.532;2022-12-20T00:53:25;95942.00;;;11.00
15680;BMP180;15488;48.114;11.532;2022-12-20T00:55:54;95940.00;;;10.80
15680;BMP180;15488;48.114;11.532;2022-12-20T00:58:22;95941.00;;;11.00
15680;BMP180;15488;48.114;11.532;2022-12-20T01:00:50;95944.00;;;11.00
15680;BMP180;15488;48.114;11.532;2022-12-20T01:03:18;95947.00;;;11.00
15680;BMP180;15488;48.114;11.532;2022-12-20T01:05:50;95949.00;;;11.00
15680;BMP180;15488;48.114;11.532;2022-12-20T01:08:18;95949.00;;;11.00
15680;BMP180;15488;48.114;11.532;2022-12-20T01:10:46;95949.00;;;11.00
15680;BMP180;15488;48.114;11.532;2022-12-20T01:13:14;95947.00;;;11.00
15680;BMP180;15488;48.114;11.532;2022-12-20T01:15:42;95952.00;;;11.00
15680;BMP180;15488;48.114;11.532;2022-12-20T01:18:09;95940.00;;;11.00
15680;BMP180;15488;48.114;11.532;2022-12-20T01:20:37;95945.00;;;11.00
15680;BMP180;15488;48.114;11.532;2022-12-20T01:23:04;95946.00;;;11.00
15680;BMP180;15488;48.114;11.532;2022-12-20T01:25:32;95941.00;;;11.00
15680;BMP180;15488;48.114;11.532;2022-12-20T01:27:59;95941.00;;;11.00
15680;BMP180;15488;48.114;11.532;2022-12-20T01:30:28;95927.00;;;11.00
15680;BMP180;15488;48.114;11.532;2022-12-20T01:32:55;95930.00;;;11.00
15680;BMP180;15488;48.114;11.532;2022-12-20T01:35:23;95931.00;;;11.00
15680;BMP180;15488;48.114;11.532;2022-12-20T01:37:50;95933.00;;;11.00
15680;BMP180;15488;48.114;11.532;2022-12-20T01:40:18;95928.00;;;11.00
15680;BMP180;15488;48.114;11.532;2022-12-20T01:42:45;95927.00;;;11.10
15680;BMP180;15488;48.114;11.532;2022-12-20T01:45:18;95927.00;;;11.10
15680;BMP180;15488;48.114;11.532;2022-12-20T01:47:48;95933.00;;;11.10
15680;BMP180;15488;48.114;11.532;2022-12-20T01:50:16;95931.00;;;11.10
15680;BMP180;15488;48.114;11.532;2022-12-20T01:52:44;95929.00;;;11.10
15680;BMP180;15488;48.114;11.532;2022-12-20T01:55:17;95924.00;;;11.10
15680;BMP180;15488;48.114;11.532;2022-12-20T01:57:48;95923.00;;;11.10
15680;BMP180;15488;48.114;11.532;2022-12-20T02:00:18;95920.00;;;11.20
15680;BMP180;15488;48.114;11.532;2022-12-20T02:02:48;95925.00;;;11.20
15680;BMP180;15488;48.114;11.532;2022-12-20T02:05:19;95926.00;;;11.20
15680;BMP180;15488;48.114;11.532;2022-12-20T02:07:49;95925.00;;;11.20
15680;BMP180;15488;48.114;11.532;2022-12-20T02:10:19;95913.00;;;11.20
15680;BMP180;15488;48.114;11.532;2022-12-20T02:12:48;95918.00;;;11.20
15680;BMP180;15488;48.114;11.532;2022-12-20T02:15:41;95918.00;;;11.20
15680;BMP180;15488;48.114;11.532;2022-12-20T02:18:20;95917.00;;;11.30
15680;BMP180;15488;48.114;11.532;2022-12-20T02:21:17;95921.00;;;11.20
15680;BMP180;15488;48.114;11.532;2022-12-20T02:24:17;95922.00;;;11.30
15680;BMP180;15488;48.114;11.532;2022-12-20T02:27:09;95918.00;;;11.30
15680;BMP180;15488;48.114;11.532;2022-12-20T02:32:43;95914.00;;;11.30
15680;BMP180;15488;48.114;11.532;2022-12-20T02:35:18;95923.00;;;11.30
15680;BMP180;15488;48.114;11.532;2022-12-20T02:37:48;95925.00;;;11.30
15680;BMP180;15488;48.114;11.532;2022-12-20T02:40:18;95920.00;;;11.30
15680;BMP180;15488;48.114;11.532;2022-12-20T02:42:49;95913.00;;;11.30
15680;BMP180;15488;48.114;11.532;2022-12-20T02:45:18;95920.00;;;11.30
15680;BMP180;15488;48.114;11.532;2022-12-20T02:47:52;95926.00;;;11.30
15680;BMP180;15488;48.114;11.532;2022-12-20T02:50:24;95918.00;;;11.40
15680;BMP180;15488;48.114;11.532;2022-12-20T02:52:54;95911.00;;;11.40
15680;BMP180;15488;48.114;11.532;2022-12-20T02:55:28;95904.00;;;11.30
15680;BMP180;15488;48.114;11.532;2022-12-20T02:57:59;95899.00;;;11.40
15680;BMP180;15488;48.114;11.532;2022-12-20T03:00:33;95899.00;;;11.40
15680;BMP180;15488;48.114;11.532;2022-12-20T03:03:05;95908.00;;;11.40
15680;BMP180;15488;48.114;11.532;2022-12-20T03:05:52;95904.00;;;11.40
15680;BMP180;15488;48.114;11.532;2022-12-20T03:08:20;95890.00;;;11.40
15680;BMP180;15488;48.114;11.532;2022-12-20T03:10:49;95887.00;;;11.40
15680;BMP180;15488;48.114;11.532;2022-12-20T03:13:17;95892.00;;;11.40
15680;BMP180;15488;48.114;11.532;2022-12-20T03:15:44;95901.00;;;11.40
15680;BMP180;15488;48.114;11.532;2022-12-20T03:18:13;95902.00;;;11.40
15680;BMP180;15488;48.114;11.532;2022-12-20T03:20:42;95907.00;;;11.40
15680;BMP180;15488;48.114;11.532;2022-12-20T03:23:10;95904.00;;;11.40
15680;BMP180;15488;48.114;11.532;2022-12-20T03:25:37;95910.00;;;11.40
15680;BMP180;15488;48.114;11.532;2022-12-20T03:28:05;95907.00;;;11.40
15680;BMP180;15488;48.114;11.532;2022-12-20T03:30:32;95894.00;;;11.40
15680;BMP180;15488;48.114;11.532;2022-12-20T03:33:00;95895.00;;;11.40
15680;BMP180;15488;48.114;11.532;2022-12-20T03:35:29;95879.00;;;11.40
15680;BMP180;15488;48.114;11.532;2022-12-20T03:37:56;95882.00;;;11.50
15680;BMP180;15488;48.114;11.532;2022-12-20T03:40:24;95881.00;;;11.40
15680;BMP180;15488;48.114;11.532;2022-12-20T03:42:51;95873.00;;;11.50
15680;BMP180;15488;48.114;11.532;2022-12-20T03:45:18;95861.00;;;11.50
15680;BMP180;15488;48.114;11.532;2022-12-20T03:47:46;95866.00;;;11.50
15680;BMP180;15488;48.114;11.532;2022-12-20T03:50:13;95858.00;;;11.50
15680;BMP180;15488;48.114;11.532;2022-12-20T03:52:42;95848.00;;;11.50
15680;BMP180;15488;48.114;11.532;2022-12-20T03:55:10;95846.00;;;11.50
15680;BMP180;15488;48.114;11.532;2022-12-20T03:57:39;95855.00;;;11.50
15680;BMP180;15488;48.114;11.532;2022-12-20T04:00:08;95859.00;;;11.50
15680;BMP180;15488;48.114;11.532;2022-12-20T04:02:37;95865.00;;;11.50
15680;BMP180;15488;48.114;11.532;2022-12-20T04:05:05;95864.00;;;11.50
15680;BMP180;15488;48.114;11.532;2022-12-20T04:07:33;95866.00;;;11.50
15680;BMP180;15488;48.114;11.532;2022-12-20T04:10:02;95873.00;;;11.50
15680;BMP180;15488;48.114;11.532;2022-12-20T04:12:29;95873.00;;;11.50
15680;BMP180;15488;48.114;11.532;2022-12-20T04:14:57;95879.00;;;11.50
15680;BMP180;15488;48.114;11.532;2022-12-20T04:17:24;95876.00;;;11.50
15680;BMP180;15488;48.114;11.532;2022-12-20T04:19:52;95878.00;;;11.50
15680;BMP180;15488;48.114;11.532;2022-12-20T04:22:19;95876.00;;;11.50
15680;BMP180;15488;48.114;11.532;2022-12-20T04:24:46;95875.00;;;11.50
15680;BMP180;15488;48.114;11.532;2022-12-20T04:27:15;95877.00;;;11.50
15680;BMP180;15488;48.114;11.532;2022-12-20T04:29:43;95870.00;;;11.50
15680;BMP180;15488;48.114;11.532;2022-12-20T04:32:10;95870.00;;;11.50
15680;BMP180;15488;48.114;11.532;2022-12-20T04:34:37;95877.00;;;11.50
15680;BMP180;15488;48.114;11.532;2022-12-20T04:37:05;95870.00;;;11.50
15680;BMP180;15488;48.114;11.532;2022-12-20T04:39:32;95870.00;;;11.50
15680;BMP180;15488;48.114;11.532;2022-12-20T04:42:00;95873.00;;;11.50
15680;BMP180;15488;48.114;11.532;2022-12-20T04:44:28;95869.00;;;11.50
15680;BMP180;15488;48.114;11.532;2022-12-20T04:46:56;95871.00;;;11.50
15680;BMP180;15488;48.114;11.532;2022-12-20T04:49:23;95858.00;;;11.60
15680;BMP180;15488;48.114;11.532;2022-12-20T04:51:51;95855.00;;;11.60
15680;BMP180;15488;48.114;11.532;2022-12-20T04:54:18;95860.00;;;11.50
15680;BMP180;15488;48.114;11.532;2022-12-20T04:56:45;95847.00;;;11.50
15680;BMP180;15488;48.114;11.532;2022-12-20T04:59:12;95849.00;;;11.60
15680;BMP180;15488;48.114;11.532;2022-12-20T05:01:41;95840.00;;;11.50
15680;BMP180;15488;48.114;11.532;2022-12-20T05:04:08;95839.00;;;11.50
15680;BMP180;15488;48.114;11.532;2022-12-20T05:06:36;95835.00;;;11.50
15680;BMP180;15488;48.114;11.532;2022-12-20T05:09:03;95828.00;;;11.60
15680;BMP180;15488;48.114;11.532;2022-12-20T05:11:31;95818.00;;;11.60
15680;BMP180;15488;48.114;11.532;2022-12-20T05:13:58;95819.00;;;11.60
15680;BMP180;15488;48.114;11.532;2022-12-20T05:16:25;95818.00;;;11.60
15680;BMP180;15488;48.114;11.532;2022-12-20T05:18:54;95821.00;;;11.60
15680;BMP180;15488;48.114;11.532;2022-12-20T05:21:22;95818.00;;;11.60
15680;BMP180;15488;48.114;11.532;2022-12-20T05:24:07;95802.00;;;11.60
15680;BMP180;15488;48.114;11.532;2022-12-20T05:26:52;95810.00;;;11.60
15680;BMP180;15488;48.114;11.532;2022-12-20T05:29:19;95815.00;;;11.60
15680;BMP180;15488;48.114;11.532;2022-12-20T05:31:47;95806.00;;;11.60
15680;BMP180;15488;48.114;11.532;2022-12-20T05:34:16;95805.00;;;11.60
15680;BMP180;15488;48.114;11.532;2022-12-20T05:36:43;95807.00;;;11.60
15680;BMP180;15488;48.114;11.532;2022-12-20T05:39:11;95811.00;;;11.70
15680;BMP180;15488;48.114;11.532;2022-12-20T05:41:38;95798.00;;;11.70
15680;BMP180;15488;48.114;11.532;2022-12-20T05:44:06;95803.00;;;11.70
15680;BMP180;15488;48.114;11.532;2022-12-20T05:46:34;95798.00;;;11.70
15680;BMP180;15488;48.114;11.532;2022-12-20T05:49:01;95795.00;;;11.70
15680;BMP180;15488;48.114;11.532;2022-12-20T05:51:30;95790.00;;;11.70
15680;BMP180;15488;48.114;11.532;2022-12-20T05:53:58;95772.00;;;11.70
15680;BMP180;15488;48.114;11.532;2022-12-20T05:56:25;95770.00;;;11.60
15680;BMP180;15488;48.114;11.532;2022-12-20T05:58:53;95775.00;;;11.60
15680;BMP180;15488;48.114;11.532;2022-12-20T06:01:21;95778.00;;;11.60
15680;BMP180;15488;48.114;11.532;2022-12-20T06:03:48;95790.00;;;11.20
15680;BMP180;15488;48.114;11.532;2022-12-20T06:06:16;95790.00;;;11.60
15680;BMP180;15488;48.114;11.532;2022-12-20T06:08:45;95792.00;;;11.60
15680;BMP180;15488;48.114;11.532;2022-12-20T06:11:13;95795.00;;;11.60
15680;BMP180;15488;48.114;11.532;2022-12-20T06:13:40;95789.00;;;11.60
15680;BMP180;15488;48.114;11.532;2022-12-20T06:16:08;95785.00;;;11.60
15680;BMP180;15488;48.114;11.532;2022-12-20T06:18:35;95785.00;;;11.60
15680;BMP180;15488;48.114;11.532;2022-12-20T06:21:02;95788.00;;;11.60
15680;BMP180;15488;48.114;11.532;2022-12-20T06:23:30;95777.00;;;11.70
15680;BMP180;15488;48.114;11.532;2022-12-20T06:26:00;95782.00;;;11.70
15680;BMP180;15488;48.114;11.532;2022-12-20T06:28:29;95780.00;;;11.70
15680;BMP180;15488;48.114;11.532;2022-12-20T06:30:57;95773.00;;;11.70
15680;BMP180;15488;48.114;11.532;2022-12-20T06:33:25;95774.00;;;11.70
15680;BMP180;15488;48.114;11.532;2022-12-20T06:35:52;95783.00;;;11.70
15680;BMP180;15488;48.114;11.532;2022-12-20T06:38:20;95788.00;;;11.70
15680;BMP180;15488;48.114;11.532;2022-12-20T06:40:47;95789.00;;;11.80
15680;BMP180;15488;48.114;11.532;2022-12-20T06:43:16;95788.00;;;11.80
15680;BMP180;15488;48.114;11.532;2022-12-20T06:45:43;95784.00;;;11.80
15680;BMP180;15488;48.114;11.532;2022-12-20T06:48:11;95783.00;;;11.80
15680;BMP180;15488;48.114;11.532;2022-12-20T06:50:39;95776.00;;;11.90
15680;BMP180;15488;48.114;11.532;2022-12-20T06:53:06;95779.00;;;11.90
15680;BMP180;15488;48.114;11.532;2022-12-20T06:55:33;95778.00;;;11.90
15680;BMP180;15488;48.114;11.532;2022-12-20T06:58:02;95772.00;;;11.90
15680;BMP180;15488;48.114;11.532;2022-12-20T07:00:31;95777.00;;;11.90
15680;BMP180;15488;48.114;11.532;2022-12-20T07:02:58;95772.00;;;12.00
15680;BMP180;15488;48.114;11.532;2022-12-20T07:05:26;95773.00;;;12.00
15680;BMP180;15488;48.114;11.532;2022-12-20T07:07:54;95773.00;;;12.00
15680;BMP180;15488;48.114;11.532;2022-12-20T07:10:21;95785.00;;;12.00
15680;BMP180;15488;48.114;11.532;2022-12-20T07:12:48;95765.00;;;12.10
15680;BMP180;15488;48.114;11.532;2022-12-20T07:15:16;95759.00;;;12.10
15680;BMP180;15488;48.114;11.532;2022-12-20T07:17:45;95768.00;;;12.10
15680;BMP180;15488;48.114;11.532;2022-12-20T07:20:12;95775.00;;;12.10
15680;BMP180;15488;48.114;11.532;2022-12-20T07:22:40;95776.00;;;12.10
15680;BMP180;15488;48.114;11.532;2022-12-20T07:25:08;95771.00;;;12.20
15680;BMP180;15488;48.114;11.532;2022-12-20T07:27:36;95764.00;;;12.20
15680;BMP180;15488;48.114;11.532;2022-12-20T07:30:04;95779.00;;;12.20
15680;BMP180;15488;48.114;11.532;2022-12-20T07:32:32;95771.00;;;12.20
15680;BMP180;15488;48.114;11.532;2022-12-20T07:35:01;95773.00;;;12.20
15680;BMP180;15488;48.114;11.532;2022-12-20T07:37:28;95771.00;;;12.30
15680;BMP180;15488;48.114;11.532;2022-12-20T07:39:55;95767.00;;;12.30
15680;BMP180;15488;48.114;11.532;2022-12-20T07:42:23;95772.00;;;12.20
15680;BMP180;15488;48.114;11.532;2022-12-20T07:44:51;95787.00;;;12.30
15680;BMP180;15488;48.114;11.532;2022-12-20T07:47:18;95787.00;;;12.30
15680;BMP180;15488;48.114;11.532;2022-12-20T07:49:46;95785.00;;;12.20
15680;BMP180;15488;48.114;11.532;2022-12-20T07:52:18;95788.00;;;12.30
15680;BMP180;15488;48.114;11.532;2022-12-20T07:54:47;95790.00;;;12.30
15680;BMP180;15488;48.114;11.532;2022-12-20T07:57:19;95798.00;;;12.30
15680;BMP180;15488;48.114;11.532;2022-12-20T07:59:50;95795.00;;;12.30
15680;BMP180;15488;48.114;11.532;2022-12-20T08:02:22;95798.00;;;12.30
15680;BMP180;15488;48.114;11.532;2022-12-20T08:04:52;95802.00;;;12.40
15680;BMP180;15488;48.114;11.532;2022-12-20T08:07:21;95803.00;;;12.30
15680;BMP180;15488;48.114;11.532;2022-12-20T08:09:49;95797.00;;;12.30
15680;BMP180;15488;48.114;11.532;2022-12-20T08:12:18;95791.00;;;12.30
15680;BMP180;15488;48.114;11.532;2022-12-20T08:14:46;95790.00;;;12.40
15680;BMP180;15488;48.114;11.532;2022-12-20T08:17:17;95790.00;;;12.40
15680;BMP180;15488;48.114;11.532;2022-12-20T08:19:44;95790.00;;;12.40
15680;BMP180;15488;48.114;11.532;2022-12-20T08:22:12;95784.00;;;12.40
15680;BMP180;15488;48.114;11.532;2022-12-20T08:24:41;95793.00;;;12.40
15680;BMP180;15488;48.114;11.532;2022-12-20T08:27:08;95789.00;;;12.50
15680;BMP180;15488;48.114;11.532;2022-12-20T08:29:36;95781.00;;;12.50
15680;BMP180;15488;48.114;11.532;2022-12-20T08:32:03;95770.00;;;12.50
15680;BMP180;15488;48.114;11.532;2022-12-20T08:34:31;95770.00;;;12.60
15680;BMP180;15488;48.114;11.532;2022-12-20T08:36:59;95772.00;;;12.60
15680;BMP180;15488;48.114;11.532;2022-12-20T08:39:26;95782.00;;;12.60
15680;BMP180;15488;48.114;11.532;2022-12-20T08:41:55;95772.00;;;12.60
15680;BMP180;15488;48.114;11.532;2022-12-20T08:44:22;95779.00;;;12.60
15680;BMP180;15488;48.114;11.532;2022-12-20T08:46:50;95775.00;;;12.70
15680;BMP180;15488;48.114;11.532;2022-12-20T08:49:19;95793.00;;;12.70
15680;BMP180;15488;48.114;11.532;2022-12-20T08:51:46;95784.00;;;12.70
15680;BMP180;15488;48.114;11.532;2022-12-20T08:54:14;95789.00;;;12.80
15680;BMP180;15488;48.114;11.532;2022-12-20T08:56:42;95782.00;;;12.80
15680;BMP180;15488;48.114;11.532;2022-12-20T08:59:11;95785.00;;;12.80
15680;BMP180;15488;48.114;11.532;2022-12-20T09:01:38;95784.00;;;12.90
15680;BMP180;15488;48.114;11.532;2022-12-20T09:04:06;95775.00;;;12.90
15680;BMP180;15488;48.114;11.532;2022-12-20T09:06:34;95781.00;;;12.90
15680;BMP180;15488;48.114;11.532;2022-12-20T09:09:02;95773.00;;;13.00
15680;BMP180;15488;48.114;11.532;2022-12-20T09:11:29;95777.00;;;13.00
15680;BMP180;15488;48.114;11.532;2022-12-20T09:13:58;95771.00;;;13.00
15680;BMP180;15488;48.114;11.532;2022-12-20T09:16:28;95755.00;;;13.00
15680;BMP180;15488;48.114;11.532;2022-12-20T09:18:58;95762.00;;;13.10
15680;BMP180;15488;48.114;11.532;2022-12-20T09:21:26;95758.00;;;13.10
15680;BMP180;15488;48.114;11.532;2022-12-20T09:23:55;95757.00;;;13.20
15680;BMP180;15488;48.114;11.532;2022-12-20T09:26:23;95754.00;;;13.20
15680;BMP180;15488;48.114;11.532;2022-12-20T09:28:51;95749.00;;;13.20
15680;BMP180;15488;48.114;11.532;2022-12-20T09:31:22;95746.00;;;13.20
15680;BMP180;15488;48.114;11.532;2022-12-20T09:33:53;95744.00;;;13.20
15680;BMP180;15488;48.114;11.532;2022-12-20T09:36:21;95745.00;;;13.30
15680;BMP180;15488;48.114;11.532;2022-12-20T09:38:49;95752.00;;;13.30
15680;BMP180;15488;48.114;11.532;2022-12-20T09:41:27;95741.00;;;13.30
15680;BMP180;15488;48.114;11.532;2022-12-20T09:43:57;95743.00;;;13.30
15680;BMP180;15488;48.114;11.532;2022-12-20T09:46:24;95728.00;;;13.30
15680;BMP180;15488;48.114;11.532;2022-12-20T09:48:54;95728.00;;;13.40
15680;BMP180;15488;48.114;11.532;2022-12-20T09:51:42;95724.00;;;13.40
15680;BMP180;15488;48.114;11.532;2022-12-20T09:54:19;95716.00;;;13.40
15680;BMP180;15488;48.114;11.532;2022-12-20T09:56:57;95727.00;;;13.50
15680;BMP180;15488;48.114;11.532;2022-12-20T09:59:25;95717.00;;;13.50
15680;BMP180;15488;48.114;11.532;2022-12-20T10:01:53;95709.00;;;13.50
15680;BMP180;15488;48.114;11.532;2022-12-20T10:04:24;95705.00;;;13.60
15680;BMP180;15488;48.114;11.532;2022-12-20T10:07:06;95698.00;;;13.60
15680;BMP180;15488;48.114;11.532;2022-12-20T10:09:48;95697.00;;;13.70
15680;BMP180;15488;48.114;11.532;2022-12-20T10:12:25;95694.00;;;13.70
15680;BMP180;15488;48.114;11.532;2022-12-20T10:15:17;95696.00;;;13.80
15680;BMP180;15488;48.114;11.532;2022-12-20T10:17:53;95706.00;;;13.80
15680;BMP180;15488;48.114;11.532;2022-12-20T10:20:35;95710.00;;;13.90
15680;BMP180;15488;48.114;11.532;2022-12-20T10:23:10;95700.00;;;13.90
15680;BMP180;15488;48.114;11.532;2022-12-20T10:25:41;95708.00;;;14.00
15680;BMP180;15488;48.114;11.532;2022-12-20T10:28:12;95704.00;;;14.00
15680;BMP180;15488;48.114;11.532;2022-12-20T10:30:41;95604.00;;;14.10
15680;BMP180;15488;48.114;11.532;2022-12-20T10:33:15;95703.00;;;14.10
15680;BMP180;15488;48.114;11.532;2022-12-20T10:35:47;95701.00;;;14.20
15680;BMP180;15488;48.114;11.532;2022-12-20T10:38:16;95700.00;;;14.30
15680;BMP180;15488;48.114;11.532;2022-12-20T10:40:46;95685.00;;;14.30
15680;BMP180;15488;48.114;11.532;2022-12-20T10:43:16;95680.00;;;14.40
15680;BMP180;15488;48.114;11.532;2022-12-20T10:45:54;95680.00;;;14.40
15680;BMP180;15488;48.114;11.532;2022-12-20T10:48:30;95673.00;;;14.50
15680;BMP180;15488;48.114;11.532;2022-12-20T10:51:02;95665.00;;;14.50
15680;BMP180;15488;48.114;11.532;2022-12-20T10:53:31;95654.00;;;14.60
15680;BMP180;15488;48.114;11.532;2022-12-20T10:56:16;95663.00;;;14.60
15680;BMP180;15488;48.114;11.532;2022-12-20T10:58:52;95642.00;;;14.60
15680;BMP180;15488;48.114;11.532;2022-12-20T11:01:21;95655.00;;;14.70
15680;BMP180;15488;48.114;11.532;2022-12-20T11:03:54;95633.00;;;14.70
15680;BMP180;15488;48.114;11.532;2022-12-20T11:06:25;95642.00;;;14.70
15680;BMP180;15488;48.114;11.532;2022-12-20T11:09:04;95631.00;;;14.80
15680;BMP180;15488;48.114;11.532;2022-12-20T11:11:39;95636.00;;;14.80
15680;BMP180;15488;48.114;11.532;2022-12-20T11:14:23;95625.00;;;14.90
15680;BMP180;15488;48.114;11.532;2022-12-20T11:16:50;95627.00;;;14.90
15680;BMP180;15488;48.114;11.532;2022-12-20T11:19:39;95624.00;;;14.90
15680;BMP180;15488;48.114;11.532;2022-12-20T11:22:23;95611.00;;;15.00
15680;BMP180;15488;48.114;11.532;2022-12-20T11:25:04;95615.00;;;15.00
15680;BMP180;15488;48.114;11.532;2022-12-20T11:27:42;95611.00;;;15.10
15680;BMP180;15488;48.114;11.532;2022-12-20T11:30:17;95606.00;;;15.10
15680;BMP180;15488;48.114;11.532;2022-12-20T11:35:46;95607.00;;;15.20
15680;BMP180;15488;48.114;11.532;2022-12-20T11:38:26;95596.00;;;15.30
15680;BMP180;15488;48.114;11.532;2022-12-20T11:41:08;95596.00;;;15.30
15680;BMP180;15488;48.114;11.532;2022-12-20T11:43:47;95589.00;;;15.40
15680;BMP180;15488;48.114;11.532;2022-12-20T11:46:26;95583.00;;;15.40
15680;BMP180;15488;48.114;11.532;2022-12-20T11:49:08;95579.00;;;15.50
15680;BMP180;15488;48.114;11.532;2022-12-20T11:51:44;95564.00;;;15.60
15680;BMP180;15488;48.114;11.532;2022-12-20T11:54:22;95561.00;;;15.60
15680;BMP180;15488;48.114;11.532;2022-12-20T11:56:58;95544.00;;;15.70
15680;BMP180;15488;48.114;11.532;2022-12-20T11:59:33;95536.00;;;15.70
15680;BMP180;15488;48.114;11.532;2022-12-20T12:02:07;95535.00;;;15.80
15680;BMP180;15488;48.114;11.532;2022-12-20T12:04:40;95542.00;;;15.90
15680;BMP180;15488;48.114;11.532;2022-12-20T12:07:14;95547.00;;;15.90
15680;BMP180;15488;48.114;11.532;2022-12-20T12:09:50;95545.00;;;15.90
15680;BMP180;15488;48.114;11.532;2022-12-20T12:12:25;95552.00;;;16.00
15680;BMP180;15488;48.114;11.532;2022-12-20T12:14:59;95543.00;;;16.00
15680;BMP180;15488;48.114;11.532;2022-12-20T12:17:34;95542.00;;;16.00
15680;BMP180;15488;48.114;11.532;2022-12-20T12:20:20;95538.00;;;16.00
15680;BMP180;15488;48.114;11.532;2022-12-20T12:22:52;95534.00;;;16.10
15680;BMP180;15488;48.114;11.532;2022-12-20T12:25:23;95537.00;;;16.10
15680;BMP180;15488;48.114;11.532;2022-12-20T12:27:50;95537.00;;;16.10
15680;BMP180;15488;48.114;11.532;2022-12-20T12:30:18;95529.00;;;16.10
15680;BMP180;15488;48.114;11.532;2022-12-20T12:32:51;95528.00;;;16.10
15680;BMP180;15488;48.114;11.532;2022-12-20T12:35:43;95541.00;;;16.10
15680;BMP180;15488;48.114;11.532;2022-12-20T12:38:30;95535.00;;;16.10
15680;BMP180;15488;48.114;11.532;2022-12-20T12:41:22;95534.00;;;16.10
15680;BMP180;15488;48.114;11.532;2022-12-20T12:43:54;95534.00;;;16.20
15680;BMP180;15488;48.114;11.532;2022-12-20T12:46:26;95525.00;;;16.20
15680;BMP180;15488;48.114;11.532;2022-12-20T12:48:57;95528.00;;;16.20
15680;BMP180;15488;48.114;11.532;2022-12-20T12:51:30;95463.00;;;16.10
15680;BMP180;15488;48.114;11.532;2022-12-20T12:54:13;95516.00;;;16.10
15680;BMP180;15488;48.114;11.532;2022-12-20T12:56:45;95517.00;;;16.10
15680;BMP180;15488;48.114;11.532;2022-12-20T13:02:32;95516.00;;;16.10
15680;BMP180;15488;48.114;11.532;2022-12-20T13:05:31;95513.00;;;16.00
15680;BMP180;15488;48.114;11.532;2022-12-20T13:07:58;95506.00;;;16.00
15680;BMP180;15488;48.114;11.532;2022-12-20T13:10:55;95505.00;;;16.00
15680;BMP180;15488;48.114;11.532;2022-12-20T13:13:24;95508.00;;;15.90
15680;BMP180;15488;48.114;11.532;2022-12-20T13:16:05;95507.00;;;15.90
15680;BMP180;15488;48.114;11.532;2022-12-20T13:18:33;95512.00;;;15.90
15680;BMP180;15488;48.114;11.532;2022-12-20T13:21:35;95512.00;;;15.80
15680;BMP180;15488;48.114;11.532;2022-12-20T13:26:58;95512.00;;;15.70
15680;BMP180;15488;48.114;11.532;2022-12-20T13:29:33;95510.00;;;15.70
15680;BMP180;15488;48.114;11.532;2022-12-20T13:32:01;95519.00;;;15.70
15680;BMP180;15488;48.114;11.532;2022-12-20T13:34:37;95518.00;;;15.60
15680;BMP180;15488;48.114;11.532;2022-12-20T13:37:26;95530.00;;;15.60
15680;BMP180;15488;48.114;11.532;2022-12-20T13:39:54;95524.00;;;15.60
15680;BMP180;15488;48.114;11.532;2022-12-20T13:42:37;95522.00;;;15.50
15680;BMP180;15488;48.114;11.532;2022-12-20T13:45:13;95515.00;;;15.50
15680;BMP180;15488;48.114;11.532;2022-12-20T13:47:44;95501.00;;;15.40
15680;BMP180;15488;48.114;11.532;2022-12-20T13:50:31;95510.00;;;15.40
15680;BMP180;15488;48.114;11.532;2022-12-20T13:53:01;95507.00;;;15.40
15680;BMP180;15488;48.114;11.532;2022-12-20T13:55:35;95512.00;;;15.40
15680;BMP180;15488;48.114;11.532;2022-12-20T13:58:17;95503.00;;;15.40
15680;BMP180;15488;48.114;11.532;2022-12-20T14:00:46;95495.00;;;15.40
15680;BMP180;15488;48.114;11.532;2022-12-20T14:03:21;95495.00;;;15.50
15680;BMP180;15488;48.114;11.532;2022-12-20T14:05:50;95496.00;;;15.60
15680;BMP180;15488;48.114;11.532;2022-12-20T14:08:21;95503.00;;;15.60
15680;BMP180;15488;48.114;11.532;2022-12-20T14:10:51;95492.00;;;15.70
15680;BMP180;15488;48.114;11.532;2022-12-20T14:13:22;95480.00;;;15.80
15680;BMP180;15488;48.114;11.532;2022-12-20T14:15:52;95485.00;;;15.90
15680;BMP180;15488;48.114;11.532;2022-12-20T14:18:22;95481.00;;;15.90
15680;BMP180;15488;48.114;11.532;2022-12-20T14:20:52;95486.00;;;15.90
15680;BMP180;15488;48.114;11.532;2022-12-20T14:23:23;95471.00;;;16.00
15680;BMP180;15488;48.114;11.532;2022-12-20T14:25:52;95463.00;;;16.00
15680;BMP180;15488;48.114;11.532;2022-12-20T14:28:32;95458.00;;;16.00
15680;BMP180;15488;48.114;11.532;2022-12-20T14:31:04;95452.00;;;16.00